sensor_id;sensor_type;location;lat;lon;timestamp;P1;durP1;ratioP1;P2;durP2;ratioP2
16516;SDS011;8371;52.272;9.746;2024-02-04T00:00:46;2.40;;;2.20;;
16516;SDS011;8371;52.272;9.746;2024-02-04T00:03:12;2.20;;;2.10;;
16516;SDS011;8371;52.272;9.746;2024-02-04T00:05:37;3.50;;;2.00;;
16516;SDS011;8371;52.272;9.746;2024-02-04T00:08:03;1.73;;;1.73;;
16516;SDS011;8371;52.272;9.746;2024-02-04T00:10:29;2.13;;;2.03;;
16516;SDS011;8371;52.272;9.746;2024-02-04T00:12:55;1.80;;;1.80;;
16516;SDS011;8371;52.272;9.746;2024-02-04T00:15:21;2.13;;;2.03;;
16516;SDS011;8371;52.272;9.746;2024-02-04T00:17:47;2.43;;;2.23;;
16516;SDS011;8371;52.272;9.746;2024-02-04T00:20:13;1.87;;;1.87;;
16516;SDS011;8371;52.272;9.746;2024-02-04T00:22:39;2.23;;;2.07;;
16516;SDS011;8371;52.272;9.746;2024-02-04T00:25:05;2.27;;;2.17;;
16516;SDS011;8371;52.272;9.746;2024-02-04T00:27:31;2.27;;;2.17;;
16516;SDS011;8371;52.272;9.746;2024-02-04T00:29:57;2.40;;;2.30;;
16516;SDS011;8371;52.272;9.746;2024-02-04T00:32:24;3.93;;;2.10;;
16516;SDS011;8371;52.272;9.746;2024-02-04T00:34:51;2.17;;;2.07;;
16516;SDS011;8371;52.272;9.746;2024-02-04T00:37:17;2.40;;;2.30;;
16516;SDS011;8371;52.272;9.746;2024-02-04T00:39:42;2.03;;;2.03;;
16516;SDS011;8371;52.272;9.746;2024-02-04T00:42:08;2.27;;;2.17;;
16516;SDS011;8371;52.272;9.746;2024-02-04T00:44:34;1.90;;;1.80;;
16516;SDS011;8371;52.272;9.746;2024-02-04T00:46:59;2.27;;;2.17;;
16516;SDS011;8371;52.272;9.746;2024-02-04T00:49:25;3.10;;;2.60;;
16516;SDS011;8371;52.272;9.746;2024-02-04T00:51:54;2.17;;;2.07;;
16516;SDS011;8371;52.272;9.746;2024-02-04T00:54:20;2.50;;;2.30;;
16516;SDS011;8371;52.272;9.746;2024-02-04T00:56:45;2.00;;;1.97;;
16516;SDS011;8371;52.272;9.746;2024-02-04T00:59:11;2.00;;;1.87;;
16516;SDS011;8371;52.272;9.746;2024-02-04T01:01:37;1.73;;;1.73;;
16516;SDS011;8371;52.272;9.746;2024-02-04T01:04:03;1.93;;;1.83;;
16516;SDS011;8371;52.272;9.746;2024-02-04T01:06:29;2.10;;;1.70;;
16516;SDS011;8371;52.272;9.746;2024-02-04T01:08:56;1.70;;;1.60;;
16516;SDS011;8371;52.272;9.746;2024-02-04T01:11:21;1.57;;;1.47;;
16516;SDS011;8371;52.272;9.746;2024-02-04T01:13:47;2.43;;;1.70;;
16516;SDS011;8371;52.272;9.746;2024-02-04T01:16:13;1.83;;;1.73;;
16516;SDS011;8371;52.272;9.746;2024-02-04T01:18:39;1.87;;;1.77;;
16516;SDS011;8371;52.272;9.746;2024-02-04T01:21:04;1.70;;;1.70;;
16516;SDS011;8371;52.272;9.746;2024-02-04T01:23:30;1.97;;;1.87;;
16516;SDS011;8371;52.272;9.746;2024-02-04T01:25:56;1.90;;;1.80;;
16516;SDS011;8371;52.272;9.746;2024-02-04T01:28:22;2.17;;;2.07;;
16516;SDS011;8371;52.272;9.746;2024-02-04T01:30:47;3.50;;;2.20;;
16516;SDS011;8371;52.272;9.746;2024-02-04T01:33:13;2.07;;;1.97;;
16516;SDS011;8371;52.272;9.746;2024-02-04T01:35:39;2.40;;;2.30;;
16516;SDS011;8371;52.272;9.746;2024-02-04T01:38:04;2.50;;;2.40;;
16516;SDS011;8371;52.272;9.746;2024-02-04T01:40:30;2.80;;;2.60;;
16516;SDS011;8371;52.272;9.746;2024-02-04T01:42:56;2.80;;;2.70;;
16516;SDS011;8371;52.272;9.746;2024-02-04T01:45:21;2.23;;;2.13;;
16516;SDS011;8371;52.272;9.746;2024-02-04T01:47:47;2.17;;;2.07;;
16516;SDS011;8371;52.272;9.746;2024-02-04T01:50:14;2.23;;;2.13;;
16516;SDS011;8371;52.272;9.746;2024-02-04T01:52:41;2.33;;;2.13;;
16516;SDS011;8371;52.272;9.746;2024-02-04T01:55:09;2.30;;;2.20;;
16516;SDS011;8371;52.272;9.746;2024-02-04T01:57:35;2.27;;;2.07;;
16516;SDS011;8371;52.272;9.746;2024-02-04T02:00:01;3.47;;;2.60;;
16516;SDS011;8371;52.272;9.746;2024-02-04T02:02:28;3.10;;;2.20;;
16516;SDS011;8371;52.272;9.746;2024-02-04T02:04:54;2.47;;;2.37;;
16516;SDS011;8371;52.272;9.746;2024-02-04T02:07:19;2.40;;;2.30;;
16516;SDS011;8371;52.272;9.746;2024-02-04T02:09:46;2.50;;;2.40;;
16516;SDS011;8371;52.272;9.746;2024-02-04T02:12:17;2.30;;;2.20;;
16516;SDS011;8371;52.272;9.746;2024-02-04T02:14:46;2.90;;;2.70;;
16516;SDS011;8371;52.272;9.746;2024-02-04T02:17:16;2.70;;;2.60;;
16516;SDS011;8371;52.272;9.746;2024-02-04T02:19:57;2.90;;;2.80;;
16516;SDS011;8371;52.272;9.746;2024-02-04T02:22:42;2.97;;;2.87;;
16516;SDS011;8371;52.272;9.746;2024-02-04T02:25:16;2.80;;;2.60;;
16516;SDS011;8371;52.272;9.746;2024-02-04T02:27:47;2.93;;;2.20;;
16516;SDS011;8371;52.272;9.746;2024-02-04T02:30:16;3.13;;;2.93;;
16516;SDS011;8371;52.272;9.746;2024-02-04T02:32:43;2.47;;;2.37;;
16516;SDS011;8371;52.272;9.746;2024-02-04T02:35:11;2.70;;;2.60;;
16516;SDS011;8371;52.272;9.746;2024-02-04T02:43:01;2.77;;;2.57;;
16516;SDS011;8371;52.272;9.746;2024-02-04T02:45:28;2.80;;;2.47;;
16516;SDS011;8371;52.272;9.746;2024-02-04T02:47:54;3.07;;;2.87;;
16516;SDS011;8371;52.272;9.746;2024-02-04T02:50:21;2.70;;;2.60;;
16516;SDS011;8371;52.272;9.746;2024-02-04T02:52:47;2.63;;;2.53;;
16516;SDS011;8371;52.272;9.746;2024-02-04T02:55:13;2.50;;;2.40;;
16516;SDS011;8371;52.272;9.746;2024-02-04T02:57:38;3.17;;;3.07;;
16516;SDS011;8371;52.272;9.746;2024-02-04T03:00:04;3.80;;;2.67;;
16516;SDS011;8371;52.272;9.746;2024-02-04T03:02:32;2.90;;;2.80;;
16516;SDS011;8371;52.272;9.746;2024-02-04T03:04:58;3.63;;;2.43;;
16516;SDS011;8371;52.272;9.746;2024-02-04T03:07:23;2.97;;;2.77;;
16516;SDS011;8371;52.272;9.746;2024-02-04T03:09:49;2.47;;;2.20;;
16516;SDS011;8371;52.272;9.746;2024-02-04T03:12:15;2.67;;;2.47;;
16516;SDS011;8371;52.272;9.746;2024-02-04T03:14:40;5.27;;;2.70;;
16516;SDS011;8371;52.272;9.746;2024-02-04T03:17:06;3.43;;;3.30;;
16516;SDS011;8371;52.272;9.746;2024-02-04T03:19:32;2.83;;;2.73;;
16516;SDS011;8371;52.272;9.746;2024-02-04T03:21:57;2.83;;;2.67;;
16516;SDS011;8371;52.272;9.746;2024-02-04T03:24:23;3.23;;;3.03;;
16516;SDS011;8371;52.272;9.746;2024-02-04T03:26:48;4.77;;;2.70;;
16516;SDS011;8371;52.272;9.746;2024-02-04T03:29:14;2.60;;;2.50;;
16516;SDS011;8371;52.272;9.746;2024-02-04T03:31:40;2.37;;;2.27;;
16516;SDS011;8371;52.272;9.746;2024-02-04T03:34:06;2.93;;;2.83;;
16516;SDS011;8371;52.272;9.746;2024-02-04T03:36:31;2.80;;;2.67;;
16516;SDS011;8371;52.272;9.746;2024-02-04T03:38:57;4.73;;;2.83;;
16516;SDS011;8371;52.272;9.746;2024-02-04T03:41:23;2.67;;;2.57;;
16516;SDS011;8371;52.272;9.746;2024-02-04T03:43:49;2.83;;;2.57;;
16516;SDS011;8371;52.272;9.746;2024-02-04T03:46:15;3.47;;;3.17;;
16516;SDS011;8371;52.272;9.746;2024-02-04T03:48:41;3.93;;;3.63;;
16516;SDS011;8371;52.272;9.746;2024-02-04T03:51:07;3.67;;;3.40;;
16516;SDS011;8371;52.272;9.746;2024-02-04T03:53:33;3.97;;;3.77;;
16516;SDS011;8371;52.272;9.746;2024-02-04T03:55:58;3.97;;;3.80;;
16516;SDS011;8371;52.272;9.746;2024-02-04T03:58:24;3.70;;;3.43;;
16516;SDS011;8371;52.272;9.746;2024-02-04T04:00:52;4.00;;;3.80;;
16516;SDS011;8371;52.272;9.746;2024-02-04T04:03:17;4.10;;;3.90;;
16516;SDS011;8371;52.272;9.746;2024-02-04T04:05:43;3.67;;;3.40;;
16516;SDS011;8371;52.272;9.746;2024-02-04T04:08:09;3.47;;;3.37;;
16516;SDS011;8371;52.272;9.746;2024-02-04T04:10:35;3.37;;;3.27;;
16516;SDS011;8371;52.272;9.746;2024-02-04T04:13:01;3.77;;;3.47;;
16516;SDS011;8371;52.272;9.746;2024-02-04T04:15:26;4.27;;;3.97;;
16516;SDS011;8371;52.272;9.746;2024-02-04T04:17:52;3.77;;;3.47;;
16516;SDS011;8371;52.272;9.746;2024-02-04T04:20:18;4.40;;;4.10;;
16516;SDS011;8371;52.272;9.746;2024-02-04T04:22:43;3.93;;;3.70;;
16516;SDS011;8371;52.272;9.746;2024-02-04T04:25:09;3.33;;;3.13;;
16516;SDS011;8371;52.272;9.746;2024-02-04T04:27:35;3.23;;;3.00;;
16516;SDS011;8371;52.272;9.746;2024-02-04T04:30:01;3.40;;;3.30;;
16516;SDS011;8371;52.272;9.746;2024-02-04T04:32:26;3.40;;;3.23;;
16516;SDS011;8371;52.272;9.746;2024-02-04T04:34:52;4.00;;;3.90;;
16516;SDS011;8371;52.272;9.746;2024-02-04T04:37:20;3.60;;;3.50;;
16516;SDS011;8371;52.272;9.746;2024-02-04T04:39:45;3.30;;;3.20;;
16516;SDS011;8371;52.272;9.746;2024-02-04T04:42:11;4.10;;;3.80;;
16516;SDS011;8371;52.272;9.746;2024-02-04T04:44:37;3.30;;;3.20;;
16516;SDS011;8371;52.272;9.746;2024-02-04T04:47:02;4.23;;;4.03;;
16516;SDS011;8371;52.272;9.746;2024-02-04T04:49:28;4.23;;;3.97;;
16516;SDS011;8371;52.272;9.746;2024-02-04T04:51:54;3.53;;;3.30;;
16516;SDS011;8371;52.272;9.746;2024-02-04T04:54:20;3.83;;;3.53;;
16516;SDS011;8371;52.272;9.746;2024-02-04T04:56:45;3.47;;;3.37;;
16516;SDS011;8371;52.272;9.746;2024-02-04T04:59:11;3.60;;;3.50;;
16516;SDS011;8371;52.272;9.746;2024-02-04T05:01:37;5.00;;;3.40;;
16516;SDS011;8371;52.272;9.746;2024-02-04T05:04:02;3.63;;;3.53;;
16516;SDS011;8371;52.272;9.746;2024-02-04T05:06:28;3.50;;;3.40;;
16516;SDS011;8371;52.272;9.746;2024-02-04T05:08:54;3.83;;;3.63;;
16516;SDS011;8371;52.272;9.746;2024-02-04T05:11:19;3.80;;;3.60;;
16516;SDS011;8371;52.272;9.746;2024-02-04T05:13:45;2.97;;;2.80;;
16516;SDS011;8371;52.272;9.746;2024-02-04T05:16:11;3.43;;;3.33;;
16516;SDS011;8371;52.272;9.746;2024-02-04T05:18:37;3.30;;;3.10;;
16516;SDS011;8371;52.272;9.746;2024-02-04T05:21:02;3.37;;;3.17;;
16516;SDS011;8371;52.272;9.746;2024-02-04T05:23:28;3.03;;;2.93;;
16516;SDS011;8371;52.272;9.746;2024-02-04T05:25:54;2.70;;;2.60;;
16516;SDS011;8371;52.272;9.746;2024-02-04T05:28:19;2.57;;;2.47;;
16516;SDS011;8371;52.272;9.746;2024-02-04T05:30:45;3.13;;;2.93;;
16516;SDS011;8371;52.272;9.746;2024-02-04T05:33:14;2.47;;;2.37;;
16516;SDS011;8371;52.272;9.746;2024-02-04T05:35:41;2.57;;;2.37;;
16516;SDS011;8371;52.272;9.746;2024-02-04T05:38:08;1.90;;;1.80;;
16516;SDS011;8371;52.272;9.746;2024-02-04T05:40:34;2.63;;;2.43;;
16516;SDS011;8371;52.272;9.746;2024-02-04T05:43:00;2.20;;;2.10;;
16516;SDS011;8371;52.272;9.746;2024-02-04T05:45:28;2.10;;;2.03;;
16516;SDS011;8371;52.272;9.746;2024-02-04T05:47:53;2.17;;;2.00;;
16516;SDS011;8371;52.272;9.746;2024-02-04T05:50:19;2.57;;;2.00;;
16516;SDS011;8371;52.272;9.746;2024-02-04T05:52:45;2.00;;;1.90;;
16516;SDS011;8371;52.272;9.746;2024-02-04T05:55:10;3.27;;;2.23;;
16516;SDS011;8371;52.272;9.746;2024-02-04T05:57:36;1.70;;;1.60;;
16516;SDS011;8371;52.272;9.746;2024-02-04T06:00:02;1.70;;;1.70;;
16516;SDS011;8371;52.272;9.746;2024-02-04T06:02:28;1.73;;;1.60;;
16516;SDS011;8371;52.272;9.746;2024-02-04T06:04:54;1.53;;;1.53;;
16516;SDS011;8371;52.272;9.746;2024-02-04T06:07:20;1.67;;;1.60;;
16516;SDS011;8371;52.272;9.746;2024-02-04T06:09:45;1.53;;;1.43;;
16516;SDS011;8371;52.272;9.746;2024-02-04T06:12:11;1.60;;;1.50;;
16516;SDS011;8371;52.272;9.746;2024-02-04T06:14:37;1.40;;;1.40;;
16516;SDS011;8371;52.272;9.746;2024-02-04T06:17:04;1.20;;;1.20;;
16516;SDS011;8371;52.272;9.746;2024-02-04T06:19:30;1.63;;;1.40;;
16516;SDS011;8371;52.272;9.746;2024-02-04T06:21:56;1.40;;;1.40;;
16516;SDS011;8371;52.272;9.746;2024-02-04T06:24:21;1.17;;;1.07;;
16516;SDS011;8371;52.272;9.746;2024-02-04T06:26:47;1.33;;;1.10;;
16516;SDS011;8371;52.272;9.746;2024-02-04T06:29:13;1.40;;;1.40;;
16516;SDS011;8371;52.272;9.746;2024-02-04T06:31:38;0.90;;;0.90;;
16516;SDS011;8371;52.272;9.746;2024-02-04T06:34:04;1.20;;;1.20;;
16516;SDS011;8371;52.272;9.746;2024-02-04T06:36:30;1.60;;;1.40;;
16516;SDS011;8371;52.272;9.746;2024-02-04T06:38:55;1.10;;;1.10;;
16516;SDS011;8371;52.272;9.746;2024-02-04T06:41:21;1.40;;;1.20;;
16516;SDS011;8371;52.272;9.746;2024-02-04T06:43:47;1.60;;;1.33;;
16516;SDS011;8371;52.272;9.746;2024-02-04T06:46:12;1.27;;;1.27;;
16516;SDS011;8371;52.272;9.746;2024-02-04T06:48:38;1.07;;;1.07;;
16516;SDS011;8371;52.272;9.746;2024-02-04T06:51:04;1.20;;;1.20;;
16516;SDS011;8371;52.272;9.746;2024-02-04T06:53:29;1.87;;;1.20;;
16516;SDS011;8371;52.272;9.746;2024-02-04T06:55:55;1.07;;;1.07;;
16516;SDS011;8371;52.272;9.746;2024-02-04T06:58:21;1.10;;;1.10;;
16516;SDS011;8371;52.272;9.746;2024-02-04T07:00:46;0.97;;;0.97;;
16516;SDS011;8371;52.272;9.746;2024-02-04T07:03:12;1.13;;;1.07;;
16516;SDS011;8371;52.272;9.746;2024-02-04T07:05:38;1.73;;;1.20;;
16516;SDS011;8371;52.272;9.746;2024-02-04T07:08:03;0.83;;;0.83;;
16516;SDS011;8371;52.272;9.746;2024-02-04T07:10:29;0.90;;;0.90;;
16516;SDS011;8371;52.272;9.746;2024-02-04T07:12:55;0.90;;;0.90;;
16516;SDS011;8371;52.272;9.746;2024-02-04T07:15:21;0.70;;;0.70;;
16516;SDS011;8371;52.272;9.746;2024-02-04T07:17:47;0.97;;;0.97;;
16516;SDS011;8371;52.272;9.746;2024-02-04T07:20:12;0.87;;;0.87;;
16516;SDS011;8371;52.272;9.746;2024-02-04T07:22:38;2.07;;;1.10;;
16516;SDS011;8371;52.272;9.746;2024-02-04T07:25:04;0.87;;;0.87;;
16516;SDS011;8371;52.272;9.746;2024-02-04T07:27:30;0.93;;;0.90;;
16516;SDS011;8371;52.272;9.746;2024-02-04T07:29:56;1.33;;;0.80;;
16516;SDS011;8371;52.272;9.746;2024-02-04T07:32:23;0.97;;;0.97;;
16516;SDS011;8371;52.272;9.746;2024-02-04T07:34:49;1.00;;;1.00;;
16516;SDS011;8371;52.272;9.746;2024-02-04T07:37:14;0.73;;;0.73;;
16516;SDS011;8371;52.272;9.746;2024-02-04T07:39:42;0.90;;;0.90;;
16516;SDS011;8371;52.272;9.746;2024-02-04T07:42:08;1.10;;;1.10;;
16516;SDS011;8371;52.272;9.746;2024-02-04T07:44:33;0.97;;;0.97;;
16516;SDS011;8371;52.272;9.746;2024-02-04T07:47:01;1.20;;;1.20;;
16516;SDS011;8371;52.272;9.746;2024-02-04T07:49:27;0.83;;;0.83;;
16516;SDS011;8371;52.272;9.746;2024-02-04T07:51:53;1.03;;;0.80;;
16516;SDS011;8371;52.272;9.746;2024-02-04T07:54:18;0.70;;;0.70;;
16516;SDS011;8371;52.272;9.746;2024-02-04T07:56:44;0.80;;;0.80;;
16516;SDS011;8371;52.272;9.746;2024-02-04T07:59:10;0.77;;;0.77;;
16516;SDS011;8371;52.272;9.746;2024-02-04T08:01:36;1.00;;;1.00;;
16516;SDS011;8371;52.272;9.746;2024-02-04T08:04:02;0.80;;;0.80;;
16516;SDS011;8371;52.272;9.746;2024-02-04T08:06:27;0.70;;;0.70;;
16516;SDS011;8371;52.272;9.746;2024-02-04T08:08:53;1.13;;;0.87;;
16516;SDS011;8371;52.272;9.746;2024-02-04T08:11:20;1.87;;;0.90;;
16516;SDS011;8371;52.272;9.746;2024-02-04T08:13:46;0.73;;;0.73;;
16516;SDS011;8371;52.272;9.746;2024-02-04T08:16:12;0.83;;;0.83;;
16516;SDS011;8371;52.272;9.746;2024-02-04T08:18:38;0.97;;;0.90;;
16516;SDS011;8371;52.272;9.746;2024-02-04T08:21:04;1.00;;;0.87;;
16516;SDS011;8371;52.272;9.746;2024-02-04T08:23:30;1.37;;;0.60;;
16516;SDS011;8371;52.272;9.746;2024-02-04T08:25:55;1.20;;;0.60;;
16516;SDS011;8371;52.272;9.746;2024-02-04T08:28:22;0.80;;;0.50;;
16516;SDS011;8371;52.272;9.746;2024-02-04T08:30:49;0.60;;;0.60;;
16516;SDS011;8371;52.272;9.746;2024-02-04T08:33:15;1.10;;;1.07;;
16516;SDS011;8371;52.272;9.746;2024-02-04T08:35:41;0.70;;;0.70;;
16516;SDS011;8371;52.272;9.746;2024-02-04T08:38:06;1.23;;;0.60;;
16516;SDS011;8371;52.272;9.746;2024-02-04T08:40:32;1.27;;;1.13;;
16516;SDS011;8371;52.272;9.746;2024-02-04T08:42:58;1.53;;;1.10;;
16516;SDS011;8371;52.272;9.746;2024-02-04T08:45:24;1.00;;;0.80;;
16516;SDS011;8371;52.272;9.746;2024-02-04T08:47:49;0.87;;;0.70;;
16516;SDS011;8371;52.272;9.746;2024-02-04T08:50:15;1.40;;;0.93;;
16516;SDS011;8371;52.272;9.746;2024-02-04T08:52:41;1.20;;;1.10;;
16516;SDS011;8371;52.272;9.746;2024-02-04T08:55:06;0.73;;;0.73;;
16516;SDS011;8371;52.272;9.746;2024-02-04T08:57:32;0.70;;;0.70;;
16516;SDS011;8371;52.272;9.746;2024-02-04T08:59:58;2.17;;;0.90;;
16516;SDS011;8371;52.272;9.746;2024-02-04T09:02:23;1.00;;;0.80;;
16516;SDS011;8371;52.272;9.746;2024-02-04T09:04:49;3.07;;;0.80;;
16516;SDS011;8371;52.272;9.746;2024-02-04T09:07:15;0.80;;;0.80;;
16516;SDS011;8371;52.272;9.746;2024-02-04T09:09:41;1.37;;;0.90;;
16516;SDS011;8371;52.272;9.746;2024-02-04T09:12:07;1.17;;;0.83;;
16516;SDS011;8371;52.272;9.746;2024-02-04T09:14:35;0.87;;;0.77;;
16516;SDS011;8371;52.272;9.746;2024-02-04T09:17:04;1.47;;;1.00;;
16516;SDS011;8371;52.272;9.746;2024-02-04T09:19:30;0.67;;;0.67;;
16516;SDS011;8371;52.272;9.746;2024-02-04T09:21:56;1.10;;;1.00;;
16516;SDS011;8371;52.272;9.746;2024-02-04T09:24:22;1.37;;;0.83;;
16516;SDS011;8371;52.272;9.746;2024-02-04T09:26:48;1.30;;;0.50;;
16516;SDS011;8371;52.272;9.746;2024-02-04T09:29:14;1.43;;;1.07;;
16516;SDS011;8371;52.272;9.746;2024-02-04T09:31:39;1.07;;;0.97;;
16516;SDS011;8371;52.272;9.746;2024-02-04T09:34:05;1.37;;;0.87;;
16516;SDS011;8371;52.272;9.746;2024-02-04T09:36:31;1.07;;;0.93;;
16516;SDS011;8371;52.272;9.746;2024-02-04T09:38:56;1.87;;;1.33;;
16516;SDS011;8371;52.272;9.746;2024-02-04T09:41:22;1.23;;;1.13;;
16516;SDS011;8371;52.272;9.746;2024-02-04T09:43:52;1.23;;;0.90;;
16516;SDS011;8371;52.272;9.746;2024-02-04T09:46:18;1.27;;;1.17;;
16516;SDS011;8371;52.272;9.746;2024-02-04T09:48:44;3.23;;;1.00;;
16516;SDS011;8371;52.272;9.746;2024-02-04T09:51:11;2.03;;;1.10;;
16516;SDS011;8371;52.272;9.746;2024-02-04T09:53:39;4.40;;;1.30;;
16516;SDS011;8371;52.272;9.746;2024-02-04T09:56:06;3.20;;;1.07;;
16516;SDS011;8371;52.272;9.746;2024-02-04T09:58:34;1.20;;;1.10;;
16516;SDS011;8371;52.272;9.746;2024-02-04T10:01:00;2.33;;;1.60;;
16516;SDS011;8371;52.272;9.746;2024-02-04T10:03:26;0.90;;;0.90;;
16516;SDS011;8371;52.272;9.746;2024-02-04T10:05:52;0.97;;;0.97;;
16516;SDS011;8371;52.272;9.746;2024-02-04T10:08:18;1.30;;;1.20;;
16516;SDS011;8371;52.272;9.746;2024-02-04T10:10:45;2.00;;;1.77;;
16516;SDS011;8371;52.272;9.746;2024-02-04T10:13:11;1.10;;;1.07;;
16516;SDS011;8371;52.272;9.746;2024-02-04T10:15:36;1.80;;;1.30;;
16516;SDS011;8371;52.272;9.746;2024-02-04T10:18:03;0.93;;;0.83;;
16516;SDS011;8371;52.272;9.746;2024-02-04T10:20:30;1.63;;;0.90;;
16516;SDS011;8371;52.272;9.746;2024-02-04T10:22:56;0.93;;;0.83;;
16516;SDS011;8371;52.272;9.746;2024-02-04T10:25:22;1.50;;;1.13;;
16516;SDS011;8371;52.272;9.746;2024-02-04T10:27:48;1.53;;;1.07;;
16516;SDS011;8371;52.272;9.746;2024-02-04T10:30:14;1.03;;;0.90;;
16516;SDS011;8371;52.272;9.746;2024-02-04T10:32:41;1.00;;;1.00;;
16516;SDS011;8371;52.272;9.746;2024-02-04T10:35:10;1.23;;;1.10;;
16516;SDS011;8371;52.272;9.746;2024-02-04T10:37:39;1.33;;;1.20;;
16516;SDS011;8371;52.272;9.746;2024-02-04T10:40:05;1.03;;;0.90;;
16516;SDS011;8371;52.272;9.746;2024-02-04T10:42:33;2.93;;;1.63;;
16516;SDS011;8371;52.272;9.746;2024-02-04T10:45:00;1.83;;;1.73;;
16516;SDS011;8371;52.272;9.746;2024-02-04T10:47:32;1.53;;;1.03;;
16516;SDS011;8371;52.272;9.746;2024-02-04T10:50:00;1.93;;;1.43;;
16516;SDS011;8371;52.272;9.746;2024-02-04T10:52:28;1.80;;;1.50;;
16516;SDS011;8371;52.272;9.746;2024-02-04T10:55:07;1.87;;;1.00;;
16516;SDS011;8371;52.272;9.746;2024-02-04T10:57:35;2.23;;;1.03;;
16516;SDS011;8371;52.272;9.746;2024-02-04T11:00:02;1.67;;;1.30;;
16516;SDS011;8371;52.272;9.746;2024-02-04T11:02:31;1.00;;;1.00;;
16516;SDS011;8371;52.272;9.746;2024-02-04T11:04:59;1.10;;;1.00;;
16516;SDS011;8371;52.272;9.746;2024-02-04T11:07:28;0.80;;;0.80;;
16516;SDS011;8371;52.272;9.746;2024-02-04T11:09:59;2.40;;;1.03;;
16516;SDS011;8371;52.272;9.746;2024-02-04T11:12:26;1.10;;;0.73;;
16516;SDS011;8371;52.272;9.746;2024-02-04T11:14:55;3.03;;;1.20;;
16516;SDS011;8371;52.272;9.746;2024-02-04T11:17:42;3.37;;;0.87;;
16516;SDS011;8371;52.272;9.746;2024-02-04T11:20:19;1.00;;;0.90;;
16516;SDS011;8371;52.272;9.746;2024-02-04T11:22:58;0.90;;;0.90;;
16516;SDS011;8371;52.272;9.746;2024-02-04T11:28:12;1.50;;;1.03;;
16516;SDS011;8371;52.272;9.746;2024-02-04T11:30:38;1.03;;;1.03;;
16516;SDS011;8371;52.272;9.746;2024-02-04T11:33:05;1.00;;;0.97;;
16516;SDS011;8371;52.272;9.746;2024-02-04T11:35:34;1.20;;;1.10;;
16516;SDS011;8371;52.272;9.746;2024-02-04T11:38:00;1.37;;;1.03;;
16516;SDS011;8371;52.272;9.746;2024-02-04T11:40:33;2.20;;;1.00;;
16516;SDS011;8371;52.272;9.746;2024-02-04T11:43:23;1.10;;;0.80;;
16516;SDS011;8371;52.272;9.746;2024-02-04T11:45:51;0.60;;;0.60;;
16516;SDS011;8371;52.272;9.746;2024-02-04T11:48:18;1.20;;;1.10;;
16516;SDS011;8371;52.272;9.746;2024-02-04T11:50:51;2.00;;;1.00;;
16516;SDS011;8371;52.272;9.746;2024-02-04T11:53:19;1.33;;;0.97;;
16516;SDS011;8371;52.272;9.746;2024-02-04T11:55:45;2.87;;;1.20;;
16516;SDS011;8371;52.272;9.746;2024-02-04T11:58:11;2.53;;;1.10;;
16516;SDS011;8371;52.272;9.746;2024-02-04T12:00:37;1.00;;;1.00;;
16516;SDS011;8371;52.272;9.746;2024-02-04T12:03:07;1.00;;;1.00;;
16516;SDS011;8371;52.272;9.746;2024-02-04T12:05:34;1.43;;;1.33;;
16516;SDS011;8371;52.272;9.746;2024-02-04T12:08:01;0.70;;;0.70;;
16516;SDS011;8371;52.272;9.746;2024-02-04T12:10:28;1.87;;;1.00;;
16516;SDS011;8371;52.272;9.746;2024-02-04T12:12:55;0.73;;;0.73;;
16516;SDS011;8371;52.272;9.746;2024-02-04T12:15:22;2.40;;;0.80;;
16516;SDS011;8371;52.272;9.746;2024-02-04T12:17:47;0.90;;;0.70;;
16516;SDS011;8371;52.272;9.746;2024-02-04T12:20:13;0.90;;;0.90;;
16516;SDS011;8371;52.272;9.746;2024-02-04T12:22:40;0.70;;;0.70;;
16516;SDS011;8371;52.272;9.746;2024-02-04T12:25:06;1.07;;;0.93;;
16516;SDS011;8371;52.272;9.746;2024-02-04T12:27:32;1.90;;;1.23;;
16516;SDS011;8371;52.272;9.746;2024-02-04T12:29:58;1.03;;;0.90;;
16516;SDS011;8371;52.272;9.746;2024-02-04T12:32:24;0.60;;;0.60;;
16516;SDS011;8371;52.272;9.746;2024-02-04T12:34:50;0.70;;;0.70;;
16516;SDS011;8371;52.272;9.746;2024-02-04T12:37:19;1.17;;;0.60;;
16516;SDS011;8371;52.272;9.746;2024-02-04T12:39:45;4.03;;;0.87;;
16516;SDS011;8371;52.272;9.746;2024-02-04T12:42:15;1.27;;;1.17;;
16516;SDS011;8371;52.272;9.746;2024-02-04T12:44:43;1.80;;;1.07;;
16516;SDS011;8371;52.272;9.746;2024-02-04T12:47:08;0.93;;;0.93;;
16516;SDS011;8371;52.272;9.746;2024-02-04T12:49:34;0.60;;;0.60;;
16516;SDS011;8371;52.272;9.746;2024-02-04T12:52:07;1.37;;;1.27;;
16516;SDS011;8371;52.272;9.746;2024-02-04T12:54:39;1.03;;;0.43;;
16516;SDS011;8371;52.272;9.746;2024-02-04T12:57:05;0.73;;;0.73;;
16516;SDS011;8371;52.272;9.746;2024-02-04T12:59:33;0.80;;;0.80;;
16516;SDS011;8371;52.272;9.746;2024-02-04T13:02:06;1.90;;;0.83;;
16516;SDS011;8371;52.272;9.746;2024-02-04T13:04:33;2.30;;;0.80;;
16516;SDS011;8371;52.272;9.746;2024-02-04T13:07:06;2.20;;;0.70;;
16516;SDS011;8371;52.272;9.746;2024-02-04T13:09:35;0.60;;;0.60;;
16516;SDS011;8371;52.272;9.746;2024-02-04T13:12:04;0.73;;;0.73;;
16516;SDS011;8371;52.272;9.746;2024-02-04T13:14:31;0.50;;;0.50;;
16516;SDS011;8371;52.272;9.746;2024-02-04T13:16:57;0.80;;;0.70;;
16516;SDS011;8371;52.272;9.746;2024-02-04T13:19:23;1.73;;;0.97;;
16516;SDS011;8371;52.272;9.746;2024-02-04T13:21:48;0.80;;;0.80;;
16516;SDS011;8371;52.272;9.746;2024-02-04T13:24:14;0.40;;;0.40;;
16516;SDS011;8371;52.272;9.746;2024-02-04T13:26:40;0.50;;;0.50;;
16516;SDS011;8371;52.272;9.746;2024-02-04T13:29:06;0.70;;;0.70;;
16516;SDS011;8371;52.272;9.746;2024-02-04T13:31:33;0.90;;;0.70;;
16516;SDS011;8371;52.272;9.746;2024-02-04T13:33:59;1.90;;;1.00;;
16516;SDS011;8371;52.272;9.746;2024-02-04T13:36:26;0.70;;;0.70;;
16516;SDS011;8371;52.272;9.746;2024-02-04T13:38:52;0.67;;;0.67;;
16516;SDS011;8371;52.272;9.746;2024-02-04T13:41:18;1.20;;;1.20;;
16516;SDS011;8371;52.272;9.746;2024-02-04T13:43:43;1.33;;;0.70;;
16516;SDS011;8371;52.272;9.746;2024-02-04T13:46:09;1.17;;;0.90;;
16516;SDS011;8371;52.272;9.746;2024-02-04T13:48:35;0.63;;;0.63;;
16516;SDS011;8371;52.272;9.746;2024-02-04T13:51:01;0.77;;;0.77;;
16516;SDS011;8371;52.272;9.746;2024-02-04T13:53:26;0.80;;;0.80;;
16516;SDS011;8371;52.272;9.746;2024-02-04T13:55:52;0.90;;;0.90;;
16516;SDS011;8371;52.272;9.746;2024-02-04T13:58:18;1.07;;;1.07;;
16516;SDS011;8371;52.272;9.746;2024-02-04T14:00:44;1.00;;;1.00;;
16516;SDS011;8371;52.272;9.746;2024-02-04T14:03:10;0.73;;;0.73;;
16516;SDS011;8371;52.272;9.746;2024-02-04T14:05:38;0.77;;;0.77;;
16516;SDS011;8371;52.272;9.746;2024-02-04T14:08:05;0.90;;;0.80;;
16516;SDS011;8371;52.272;9.746;2024-02-04T14:10:32;0.90;;;0.90;;
16516;SDS011;8371;52.272;9.746;2024-02-04T14:12:57;0.80;;;0.80;;
16516;SDS011;8371;52.272;9.746;2024-02-04T14:15:23;1.00;;;1.00;;
16516;SDS011;8371;52.272;9.746;2024-02-04T14:17:49;0.80;;;0.80;;
16516;SDS011;8371;52.272;9.746;2024-02-04T14:20:14;1.00;;;1.00;;
16516;SDS011;8371;52.272;9.746;2024-02-04T14:22:40;1.03;;;0.90;;
16516;SDS011;8371;52.272;9.746;2024-02-04T14:25:06;1.00;;;0.90;;
16516;SDS011;8371;52.272;9.746;2024-02-04T14:27:32;1.53;;;1.00;;
16516;SDS011;8371;52.272;9.746;2024-02-04T14:29:58;1.43;;;1.33;;
16516;SDS011;8371;52.272;9.746;2024-02-04T14:32:24;1.40;;;0.80;;
16516;SDS011;8371;52.272;9.746;2024-02-04T14:34:50;0.90;;;0.90;;
16516;SDS011;8371;52.272;9.746;2024-02-04T14:37:16;1.10;;;1.00;;
16516;SDS011;8371;52.272;9.746;2024-02-04T14:39:41;1.00;;;1.00;;
16516;SDS011;8371;52.272;9.746;2024-02-04T14:42:10;0.80;;;0.80;;
16516;SDS011;8371;52.272;9.746;2024-02-04T14:44:35;0.83;;;0.83;;
16516;SDS011;8371;52.272;9.746;2024-02-04T14:47:01;1.10;;;1.10;;
16516;SDS011;8371;52.272;9.746;2024-02-04T14:49:27;0.80;;;0.80;;
16516;SDS011;8371;52.272;9.746;2024-02-04T14:51:53;1.37;;;0.90;;
16516;SDS011;8371;52.272;9.746;2024-02-04T14:54:19;1.00;;;1.00;;
16516;SDS011;8371;52.272;9.746;2024-02-04T14:56:44;0.90;;;0.90;;
16516;SDS011;8371;52.272;9.746;2024-02-04T14:59:12;1.43;;;1.03;;
16516;SDS011;8371;52.272;9.746;2024-02-04T15:01:38;2.53;;;1.20;;
16516;SDS011;8371;52.272;9.746;2024-02-04T15:04:04;1.10;;;0.97;;